Buoy 62724

sailwx.info

Track history (hours):
 
Tides and Currents Weather Stations Pressure Air Temp Water Temp Dewpoint Dewpoint Depression Visibility Wind Speed Wind Dir Waves Ship Positions

Drifting buoy 62724

Last reported at 2018-May-22 09:00 UTC. Time now 2018-May-22 10:16 UTC.
Position N 29°35' W 026°07'.

Water temperature 20.2 ° C

Date/timePositionNaut miles runAvg speedWind from/ knotsBaromVisibWave heightAir tempDewpointWater temp
2018-May-22 09:00N 29°35' W 026°07'0 0.0 20.2
2018-May-22 08:00N 29°35' W 026°07'1 0.8 20.3
2018-May-22 07:00N 29°36' W 026°06'0 0.0 20.4
2018-May-22 06:00N 29°36' W 026°06'2 2.4 20.4
2018-May-22 05:00N 29°38' W 026°04'2 0.3 20.4
2018-May-21 23:00N 29°38' W 026°02'0 0.0 20.5
2018-May-21 22:00N 29°38' W 026°02'2 1.7 20.6
2018-May-21 21:00N 29°39' W 026°04'0 0.0 20.7
2018-May-21 20:00N 29°39' W 026°04'1 1.2 20.7
2018-May-21 19:00N 29°40' W 026°04'0 0.0 20.8
2018-May-21 18:00N 29°40' W 026°04'0 0.0 20.9
2018-May-21 17:00N 29°40' W 026°04'0 0.0 20.8
2018-May-21 16:00N 29°40' W 026°04'1 1.2 20.7
2018-May-21 15:00N 29°41' W 026°04'0 0.0 20.6
2018-May-21 12:00N 29°41' W 026°04'1 0.6 20.5
2018-May-21 11:00N 29°42' W 026°04'1 0.4 20.4
2018-May-21 09:00N 29°41' W 026°05'2 1.7 20.1
2018-May-21 08:00N 29°42' W 026°03'2 2.4 20.1
2018-May-21 07:00N 29°44' W 026°05'0 0.0 20.1
2018-May-21 06:00N 29°44' W 026°05'4 3.6 20.1
2018-May-21 05:00N 29°46' W 026°01'0 0.0 20.1
2018-May-21 00:00N 29°46' W 026°01'1 0.6 20.2
2018-May-20 23:00N 29°46' W 026°01'0 0.0 20.3
2018-May-20 22:00N 29°46' W 026°01'1 1.2 20.3
2018-May-20 21:00N 29°47' W 026°00'0 0.0 20.3
2018-May-20 20:00N 29°47' W 026°00'2 1.9 20.3
2018-May-20 19:00N 29°49' W 026°01'0 0.0 20.4
2018-May-20 17:00N 29°49' W 026°01'0 0.0 20.4
2018-May-20 16:00N 29°49' W 026°01'2 2.1 20.4
2018-May-20 15:00N 29°50' W 025°59'1 0.3 20.3
2018-May-20 12:00N 29°51' W 026°00'0 0.0 20.0
2018-May-20 11:00N 29°51' W 026°00'1 1.2 19.9
2018-May-20 10:00N 29°52' W 025°59'1 0.4 19.9
2018-May-20 08:00N 29°52' W 025°59'0 0.0 19.9
2018-May-20 07:00N 29°52' W 025°59'3 3.2 19.9
2018-May-20 06:00N 29°54' W 025°56'0 0.0 19.9
2018-May-20 05:00N 29°54' W 025°56'0 0.0 19.9
2018-May-20 03:00N 29°54' W 025°56'1 0.3 20.0
2018-May-19 23:00N 29°55' W 025°55'1 0.5 20.0
2018-May-19 22:00N 29°55' W 025°56'1 0.6 20.0
2018-May-19 21:00N 29°55' W 025°56'2 1.7 20.0
2018-May-19 20:00N 29°56' W 025°54'1 0.8 20.0
2018-May-19 19:00N 29°55' W 025°55'1 0.8 20.1
2018-May-19 18:00N 29°56' W 025°54'1 0.5 20.1
2018-May-19 17:00N 29°56' W 025°55'1 0.5 20.1
2018-May-19 15:00N 29°56' W 025°53'2 0.8 20.0
2018-May-19 13:00N 29°56' W 025°52'1 0.5 20.0
2018-May-19 12:00N 29°56' W 025°51'0 0.0 19.9
2018-May-19 11:00N 29°56' W 025°51'1 0.5 19.9
2018-May-19 10:00N 29°56' W 025°50'1 0.5 19.9
2018-May-19 09:00N 29°56' W 025°50'1 0.5 19.8
2018-May-19 08:00N 29°56' W 025°49'2 1.6 19.8
2018-May-19 07:00N 29°57' W 025°48'1 0.5 19.8
2018-May-19 06:00N 29°57' W 025°47'0 0.0 19.8
2018-May-19 05:00N 29°57' W 025°47'4 3.6 19.8
2018-May-19 04:00N 29°59' W 025°44'4 3.5 19.8
2018-May-19 03:00N 29°56' W 025°47'4 1.4 19.8
2018-May-19 00:00N 29°59' W 025°43'0 0.0 19.8
2018-May-18 23:00N 29°59' W 025°43'0 0.0 19.8
2018-May-18 22:00N 29°59' W 025°43'1 0.8 19.8
2018-May-18 21:00N 30°00' W 025°44'1 0.5 19.8
2018-May-18 20:00N 30°00' W 025°43'3 2.6 19.8
2018-May-18 19:00N 30°00' W 025°40'1 1.0 19.8
2018-May-18 18:00N 30°00' W 025°41'2 1.6 19.9
2018-May-18 17:00N 30°01' W 025°40'1 0.6 19.9
2018-May-18 16:00N 30°01' W 025°40'0 0.0 19.9
2018-May-18 15:00N 30°01' W 025°40'3 0.7 19.8
2018-May-18 11:00N 30°02' W 025°37'1 0.8 19.8
2018-May-18 10:00N 30°02' W 025°37'1 1.0 19.8
2018-May-18 09:00N 30°02' W 025°38'2 2.2 19.8
2018-May-18 08:00N 30°03' W 025°35'1 1.2 19.8
2018-May-18 07:00N 30°04' W 025°34'1 1.2 19.8
2018-May-18 06:00N 30°04' W 025°33'0 0.0 19.8
2018-May-18 05:00N 30°04' W 025°33'4 4.2 19.8
2018-May-18 04:00N 30°08' W 025°31'2 0.3 19.8
2018-May-17 23:00N 30°08' W 025°29'1 1.0 19.8
2018-May-17 22:00N 30°08' W 025°28'1 1.2 19.8
2018-May-17 21:00N 30°09' W 025°29'2 1.7 19.8
2018-May-17 20:00N 30°10' W 025°27'0 0.0 19.8
2018-May-17 19:00N 30°10' W 025°27'1 0.6 19.9
2018-May-17 18:00N 30°10' W 025°27'2 1.6 19.9
2018-May-17 17:00N 30°11' W 025°26'3 2.6 19.9
2018-May-17 16:00N 30°14' W 025°25'0 0.0 19.9
2018-May-17 12:00N 30°14' W 025°25'1 1.2 19.8
2018-May-17 11:00N 30°13' W 025°23'1 0.8 19.8
2018-May-17 10:00N 30°14' W 025°24'0 0.0 19.8
2018-May-17 09:00N 30°14' W 025°24'2 2.0 19.8
2018-May-17 08:00N 30°15' W 025°22'0 0.0 19.8
2018-May-17 07:00N 30°15' W 025°22'4 4.3 19.8
2018-May-17 06:00N 30°18' W 025°19'0 0.0 19.8
2018-May-17 05:00N 30°18' W 025°19'0 0.0 19.8
2018-May-17 04:00N 30°18' W 025°19'1 0.3 19.8
2018-May-16 23:00N 30°19' W 025°18'2 1.7 19.8
2018-May-16 22:00N 30°20' W 025°16'0 0.0 19.8
2018-May-16 21:00N 30°20' W 025°16'1 0.8 19.8
2018-May-16 20:00N 30°20' W 025°16'0 0.0 19.8
2018-May-16 19:00N 30°20' W 025°16'1 0.8 19.8
2018-May-16 18:00N 30°21' W 025°15'0 0.0 19.8
2018-May-16 17:00N 30°21' W 025°15'2 2.2 19.8
2018-May-16 16:00N 30°22' W 025°13'2 2.2 19.8
2018-May-16 15:00N 30°21' W 025°15'2 0.4 19.8
2018-May-16 10:00N 30°22' W 025°13'1 0.6 19.7
2018-May-16 09:00N 30°22' W 025°13'2 0.8 19.7
2018-May-16 07:00N 30°23' W 025°11'1 0.8 19.7
2018-May-16 06:00N 30°23' W 025°10'3 3.2 19.6
2018-May-16 05:00N 30°24' W 025°07'0 0.0 19.6
2018-May-16 00:00N 30°24' W 025°07'0 0.0 19.4
2018-May-15 23:00N 30°24' W 025°07'0 0.0 19.4
2018-May-15 22:00N 30°24' W 025°07'1 0.8 19.4
2018-May-15 21:00N 30°25' W 025°06'2 1.6 19.5
2018-May-15 20:00N 30°25' W 025°04'0 0.0 19.5
2018-May-15 19:00N 30°25' W 025°04'2 1.7 19.5
2018-May-15 18:00N 30°25' W 025°02'0 0.0 19.5
2018-May-15 17:00N 30°25' W 025°02'0 0.0 19.5
2018-May-15 16:00N 30°25' W 025°02'2 0.5 19.5
2018-May-15 12:00N 30°25' W 025°00'3 2.7 19.5
2018-May-15 11:00N 30°26' W 024°57'0 0.0 19.5
2018-May-15 10:00N 30°26' W 024°57'0 0.0 19.5
2018-May-15 09:00N 30°26' W 024°57'2 1.7 19.5
2018-May-15 08:00N 30°26' W 024°55'0 0.0 19.5
2018-May-15 07:00N 30°26' W 024°55'1 1.0 19.5
2018-May-15 06:00N 30°26' W 024°54'4 4.0 19.5
2018-May-15 05:00N 30°28' W 024°50'0 0.0 19.5
2018-May-15 04:00N 30°28' W 024°50'1 0.2 19.5
2018-May-14 23:00N 30°29' W 024°49'1 0.5 19.5
2018-May-14 22:00N 30°29' W 024°49'2 1.7 19.5
2018-May-14 21:00N 30°29' W 024°47'0 0.0 19.5
2018-May-14 20:00N 30°29' W 024°47'1 0.6 19.5
2018-May-14 19:00N 30°30' W 024°47'1 1.2 19.5
2018-May-14 18:00N 30°31' W 024°46'0 0.0 19.5
2018-May-14 17:00N 30°31' W 024°46'0 0.0 19.6
2018-May-14 16:00N 30°31' W 024°46'5 1.1 19.5
2018-May-14 12:00N 30°32' W 024°41'1 0.6 19.4
2018-May-14 11:00N 30°32' W 024°41'1 1.2 19.4
2018-May-14 10:00N 30°32' W 024°40'1 0.5 19.4
2018-May-14 09:00N 30°32' W 024°39'2 1.7 19.4
2018-May-14 08:00N 30°33' W 024°37'7 7.5 19.4
2018-May-14 07:00N 30°37' W 024°30'6 6.4 19.4
2018-May-14 06:00N 30°34' W 024°37'6 6.4 19.4
2018-May-14 05:00N 30°37' W 024°30'0 0.0 19.4
2018-May-14 04:00N 30°37' W 024°30'0 0.0 19.4
2018-May-13 23:00N 30°37' W 024°30'2 2.1 19.5
2018-May-13 22:00N 30°39' W 024°29'1 0.8 19.5
2018-May-13 21:00N 30°38' W 024°28'0 0.0 19.5
2018-May-13 20:00N 30°38' W 024°28'1 1.0 19.6
2018-May-13 19:00N 30°38' W 024°27'1 1.0 19.6
2018-May-13 18:00N 30°38' W 024°26'0 0.0 19.6
2018-May-13 17:00N 30°38' W 024°26'0 0.0 19.6
2018-May-13 16:00N 30°38' W 024°26'3 3.3 19.6
2018-May-13 15:00N 30°40' W 024°22'1 0.2 19.6
2018-May-13 12:00N 30°40' W 024°22'1 0.6 19.6
2018-May-13 11:00N 30°39' W 024°22'2 1.5 19.5
2018-May-13 10:00N 30°39' W 024°20'1 0.5 19.5
2018-May-13 09:00N 30°39' W 024°19'8 3.9 19.5
2018-May-13 07:00N 30°40' W 024°10'7 6.8 19.5
2018-May-13 06:00N 30°38' W 024°18'7 6.8 19.5
2018-May-13 05:00N 30°40' W 024°10'0 0.0 19.5
2018-May-12 23:00N 30°40' W 024°10'1 0.8 19.6
2018-May-12 22:00N 30°40' W 024°10'1 0.8 19.6
2018-May-12 21:00N 30°40' W 024°10'2 2.1 19.6
2018-May-12 20:00N 30°40' W 024°08'0 0.0 19.7
2018-May-12 19:00N 30°40' W 024°08'0 0.0 19.7
2018-May-12 18:00N 30°40' W 024°08'2 2.1 19.8
2018-May-12 17:00N 30°40' W 024°05'1 0.6 19.8
2018-May-12 15:00N 30°38' W 024°05'0 0.0 19.7
2018-May-12 14:00N 30°38' W 024°05'4 1.8 19.7
2018-May-12 12:00N 30°38' W 024°01'1 0.5 19.7
2018-May-12 11:00N 30°38' W 024°01'2 1.5 19.6
2018-May-12 10:00N 30°38' W 023°59'0 0.0 19.6
2018-May-12 09:00N 30°38' W 023°59'   19.6
Track history (hours):
 
Tides and Currents Weather Stations Pressure Air Temp Water Temp Dewpoint Dewpoint Depression Visibility Wind Speed Wind Dir Waves Ship Positions

Drifting buoy 62724

Last reported at 2018-May-22 09:00 UTC. Time now 2018-May-22 10:16 UTC.
Position N 29°35' W 026°07'.

Water temperature 20.2 ° C

Date/timePositionNaut miles runAvg speedWind from/ knotsBaromVisibWave heightAir tempDewpointWater temp
2018-May-22 09:00N 29°35' W 026°07'0 0.0 20.2
2018-May-22 08:00N 29°35' W 026°07'1 0.8 20.3
2018-May-22 07:00N 29°36' W 026°06'0 0.0 20.4
2018-May-22 06:00N 29°36' W 026°06'2 2.4 20.4
2018-May-22 05:00N 29°38' W 026°04'2 0.3 20.4
2018-May-21 23:00N 29°38' W 026°02'0 0.0 20.5
2018-May-21 22:00N 29°38' W 026°02'2 1.7 20.6
2018-May-21 21:00N 29°39' W 026°04'0 0.0 20.7
2018-May-21 20:00N 29°39' W 026°04'1 1.2 20.7
2018-May-21 19:00N 29°40' W 026°04'0 0.0 20.8
2018-May-21 18:00N 29°40' W 026°04'0 0.0 20.9
2018-May-21 17:00N 29°40' W 026°04'0 0.0 20.8
2018-May-21 16:00N 29°40' W 026°04'1 1.2 20.7
2018-May-21 15:00N 29°41' W 026°04'0 0.0 20.6
2018-May-21 12:00N 29°41' W 026°04'1 0.6 20.5
2018-May-21 11:00N 29°42' W 026°04'1 0.4 20.4
2018-May-21 09:00N 29°41' W 026°05'2 1.7 20.1
2018-May-21 08:00N 29°42' W 026°03'2 2.4 20.1
2018-May-21 07:00N 29°44' W 026°05'0 0.0 20.1
2018-May-21 06:00N 29°44' W 026°05'4 3.6 20.1
2018-May-21 05:00N 29°46' W 026°01'0 0.0 20.1
2018-May-21 00:00N 29°46' W 026°01'1 0.6 20.2
2018-May-20 23:00N 29°46' W 026°01'0 0.0 20.3
2018-May-20 22:00N 29°46' W 026°01'1 1.2 20.3
2018-May-20 21:00N 29°47' W 026°00'0 0.0 20.3
2018-May-20 20:00N 29°47' W 026°00'2 1.9 20.3
2018-May-20 19:00N 29°49' W 026°01'0 0.0 20.4
2018-May-20 17:00N 29°49' W 026°01'0 0.0 20.4
2018-May-20 16:00N 29°49' W 026°01'2 2.1 20.4
2018-May-20 15:00N 29°50' W 025°59'1 0.3 20.3
2018-May-20 12:00N 29°51' W 026°00'0 0.0 20.0
2018-May-20 11:00N 29°51' W 026°00'1 1.2 19.9
2018-May-20 10:00N 29°52' W 025°59'1 0.4 19.9
2018-May-20 08:00N 29°52' W 025°59'0 0.0 19.9
2018-May-20 07:00N 29°52' W 025°59'3 3.2 19.9
2018-May-20 06:00N 29°54' W 025°56'0 0.0 19.9
2018-May-20 05:00N 29°54' W 025°56'0 0.0 19.9
2018-May-20 03:00N 29°54' W 025°56'1 0.3 20.0
2018-May-19 23:00N 29°55' W 025°55'1 0.5 20.0
2018-May-19 22:00N 29°55' W 025°56'1 0.6 20.0
2018-May-19 21:00N 29°55' W 025°56'2 1.7 20.0
2018-May-19 20:00N 29°56' W 025°54'1 0.8 20.0
2018-May-19 19:00N 29°55' W 025°55'1 0.8 20.1
2018-May-19 18:00N 29°56' W 025°54'1 0.5 20.1
2018-May-19 17:00N 29°56' W 025°55'1 0.5 20.1
2018-May-19 15:00N 29°56' W 025°53'2 0.8 20.0
2018-May-19 13:00N 29°56' W 025°52'1 0.5 20.0
2018-May-19 12:00N 29°56' W 025°51'0 0.0 19.9
2018-May-19 11:00N 29°56' W 025°51'1 0.5 19.9
2018-May-19 10:00N 29°56' W 025°50'1 0.5 19.9
2018-May-19 09:00N 29°56' W 025°50'1 0.5 19.8
2018-May-19 08:00N 29°56' W 025°49'2 1.6 19.8
2018-May-19 07:00N 29°57' W 025°48'1 0.5 19.8
2018-May-19 06:00N 29°57' W 025°47'0 0.0 19.8
2018-May-19 05:00N 29°57' W 025°47'4 3.6 19.8
2018-May-19 04:00N 29°59' W 025°44'4 3.5 19.8
2018-May-19 03:00N 29°56' W 025°47'4 1.4 19.8
2018-May-19 00:00N 29°59' W 025°43'0 0.0 19.8
2018-May-18 23:00N 29°59' W 025°43'0 0.0 19.8
2018-May-18 22:00N 29°59' W 025°43'1 0.8 19.8
2018-May-18 21:00N 30°00' W 025°44'1 0.5 19.8
2018-May-18 20:00N 30°00' W 025°43'3 2.6 19.8
2018-May-18 19:00N 30°00' W 025°40'1 1.0 19.8
2018-May-18 18:00N 30°00' W 025°41'2 1.6 19.9
2018-May-18 17:00N 30°01' W 025°40'1 0.6 19.9
2018-May-18 16:00N 30°01' W 025°40'0 0.0 19.9
2018-May-18 15:00N 30°01' W 025°40'3 0.7 19.8
2018-May-18 11:00N 30°02' W 025°37'1 0.8 19.8
2018-May-18 10:00N 30°02' W 025°37'1 1.0 19.8
2018-May-18 09:00N 30°02' W 025°38'2 2.2 19.8
2018-May-18 08:00N 30°03' W 025°35'1 1.2 19.8
2018-May-18 07:00N 30°04' W 025°34'1 1.2 19.8
2018-May-18 06:00N 30°04' W 025°33'0 0.0 19.8
2018-May-18 05:00N 30°04' W 025°33'4 4.2 19.8
2018-May-18 04:00N 30°08' W 025°31'2 0.3 19.8
2018-May-17 23:00N 30°08' W 025°29'1 1.0 19.8
2018-May-17 22:00N 30°08' W 025°28'1 1.2 19.8
2018-May-17 21:00N 30°09' W 025°29'2 1.7 19.8
2018-May-17 20:00N 30°10' W 025°27'0 0.0 19.8
2018-May-17 19:00N 30°10' W 025°27'1 0.6 19.9
2018-May-17 18:00N 30°10' W 025°27'2 1.6 19.9
2018-May-17 17:00N 30°11' W 025°26'3 2.6 19.9
2018-May-17 16:00N 30°14' W 025°25'0 0.0 19.9
2018-May-17 12:00N 30°14' W 025°25'1 1.2 19.8
2018-May-17 11:00N 30°13' W 025°23'1 0.8 19.8
2018-May-17 10:00N 30°14' W 025°24'0 0.0 19.8
2018-May-17 09:00N 30°14' W 025°24'2 2.0 19.8
2018-May-17 08:00N 30°15' W 025°22'0 0.0 19.8
2018-May-17 07:00N 30°15' W 025°22'4 4.3 19.8
2018-May-17 06:00N 30°18' W 025°19'0 0.0 19.8
2018-May-17 05:00N 30°18' W 025°19'0 0.0 19.8
2018-May-17 04:00N 30°18' W 025°19'1 0.3 19.8
2018-May-16 23:00N 30°19' W 025°18'2 1.7 19.8
2018-May-16 22:00N 30°20' W 025°16'0 0.0 19.8
2018-May-16 21:00N 30°20' W 025°16'1 0.8 19.8
2018-May-16 20:00N 30°20' W 025°16'0 0.0 19.8
2018-May-16 19:00N 30°20' W 025°16'1 0.8 19.8
2018-May-16 18:00N 30°21' W 025°15'0 0.0 19.8
2018-May-16 17:00N 30°21' W 025°15'2 2.2 19.8
2018-May-16 16:00N 30°22' W 025°13'2 2.2 19.8
2018-May-16 15:00N 30°21' W 025°15'2 0.4 19.8
2018-May-16 10:00N 30°22' W 025°13'1 0.6 19.7
2018-May-16 09:00N 30°22' W 025°13'2 0.8 19.7
2018-May-16 07:00N 30°23' W 025°11'1 0.8 19.7
2018-May-16 06:00N 30°23' W 025°10'3 3.2 19.6
2018-May-16 05:00N 30°24' W 025°07'0 0.0 19.6
2018-May-16 00:00N 30°24' W 025°07'0 0.0 19.4
2018-May-15 23:00N 30°24' W 025°07'0 0.0 19.4
2018-May-15 22:00N 30°24' W 025°07'1 0.8 19.4
2018-May-15 21:00N 30°25' W 025°06'2 1.6 19.5
2018-May-15 20:00N 30°25' W 025°04'0 0.0 19.5
2018-May-15 19:00N 30°25' W 025°04'2 1.7 19.5
2018-May-15 18:00N 30°25' W 025°02'0 0.0 19.5
2018-May-15 17:00N 30°25' W 025°02'0 0.0 19.5
2018-May-15 16:00N 30°25' W 025°02'2 0.5 19.5
2018-May-15 12:00N 30°25' W 025°00'3 2.7 19.5
2018-May-15 11:00N 30°26' W 024°57'0 0.0 19.5
2018-May-15 10:00N 30°26' W 024°57'0 0.0 19.5
2018-May-15 09:00N 30°26' W 024°57'2 1.7 19.5
2018-May-15 08:00N 30°26' W 024°55'0 0.0 19.5
2018-May-15 07:00N 30°26' W 024°55'1 1.0 19.5
2018-May-15 06:00N 30°26' W 024°54'4 4.0 19.5
2018-May-15 05:00N 30°28' W 024°50'0 0.0 19.5
2018-May-15 04:00N 30°28' W 024°50'1 0.2 19.5
2018-May-14 23:00N 30°29' W 024°49'1 0.5 19.5
2018-May-14 22:00N 30°29' W 024°49'2 1.7 19.5
2018-May-14 21:00N 30°29' W 024°47'0 0.0 19.5
2018-May-14 20:00N 30°29' W 024°47'1 0.6 19.5
2018-May-14 19:00N 30°30' W 024°47'1 1.2 19.5
2018-May-14 18:00N 30°31' W 024°46'0 0.0 19.5
2018-May-14 17:00N 30°31' W 024°46'0 0.0 19.6
2018-May-14 16:00N 30°31' W 024°46'5 1.1 19.5
2018-May-14 12:00N 30°32' W 024°41'1 0.6 19.4
2018-May-14 11:00N 30°32' W 024°41'1 1.2 19.4
2018-May-14 10:00N 30°32' W 024°40'1 0.5 19.4
2018-May-14 09:00N 30°32' W 024°39'2 1.7 19.4
2018-May-14 08:00N 30°33' W 024°37'7 7.5 19.4
2018-May-14 07:00N 30°37' W 024°30'6 6.4 19.4
2018-May-14 06:00N 30°34' W 024°37'6 6.4 19.4
2018-May-14 05:00N 30°37' W 024°30'0 0.0 19.4
2018-May-14 04:00N 30°37' W 024°30'0 0.0 19.4
2018-May-13 23:00N 30°37' W 024°30'2 2.1 19.5
2018-May-13 22:00N 30°39' W 024°29'1 0.8 19.5
2018-May-13 21:00N 30°38' W 024°28'0 0.0 19.5
2018-May-13 20:00N 30°38' W 024°28'1 1.0 19.6
2018-May-13 19:00N 30°38' W 024°27'1 1.0 19.6
2018-May-13 18:00N 30°38' W 024°26'0 0.0 19.6
2018-May-13 17:00N 30°38' W 024°26'0 0.0 19.6
2018-May-13 16:00N 30°38' W 024°26'3 3.3 19.6
2018-May-13 15:00N 30°40' W 024°22'1 0.2 19.6
2018-May-13 12:00N 30°40' W 024°22'1 0.6 19.6
2018-May-13 11:00N 30°39' W 024°22'2 1.5 19.5
2018-May-13 10:00N 30°39' W 024°20'1 0.5 19.5
2018-May-13 09:00N 30°39' W 024°19'8 3.9 19.5
2018-May-13 07:00N 30°40' W 024°10'7 6.8 19.5
2018-May-13 06:00N 30°38' W 024°18'7 6.8 19.5
2018-May-13 05:00N 30°40' W 024°10'0 0.0 19.5
2018-May-12 23:00N 30°40' W 024°10'1 0.8 19.6
2018-May-12 22:00N 30°40' W 024°10'1 0.8 19.6
2018-May-12 21:00N 30°40' W 024°10'2 2.1 19.6
2018-May-12 20:00N 30°40' W 024°08'0 0.0 19.7
2018-May-12 19:00N 30°40' W 024°08'0 0.0 19.7
2018-May-12 18:00N 30°40' W 024°08'2 2.1 19.8
2018-May-12 17:00N 30°40' W 024°05'1 0.6 19.8
2018-May-12 15:00N 30°38' W 024°05'0 0.0 19.7
2018-May-12 14:00N 30°38' W 024°05'4 1.8 19.7
2018-May-12 12:00N 30°38' W 024°01'1 0.5 19.7
2018-May-12 11:00N 30°38' W 024°01'2 1.5 19.6
2018-May-12 10:00N 30°38' W 023°59'0 0.0 19.6
2018-May-12 09:00N 30°38' W 023°59'   19.6

Dump ship's entire track history